< < Back
Terminal Aerodrome Forecast


Current Version              Previous Versions:   1  2  3  4  5  6  7  8  9  

Terminal Aerodrome Forecast

766
FTUS42 KCHS 222323
TAFCHS
TAF
KCHS 222323Z 2300/2324 20004KT P6SM FEW015 SCT250
     FM231300 26006KT P6SM SCT030 BKN250
     FM231900 19009KT P6SM SCT040=

Latest METAR

688
SAUS80 KWBC 240000
MTRCHS
METAR KCHS 232356Z 18007KT 10SM FEW120 FEW250 30/23 A2997 RMK AO2 SLP148
T03000233 10350 20300 53001 $


USA.gov is the U.S. government's official web portal to all federal, state and local government web resources and services.